Redington Shores, Florida
Current Conditions -  °F | °C
As of 6:53 AM on Thursday 23 Oct 2014 (Local Time) from KPIE Reporting Station
Clear Clear  
Wind Chill: 66°   Ceiling: Unl
Heat Index: 66°   Visibility: 10mi
Dew Point: 57°   Wind: 14mph
Humidity: 73%   Direction: 50°NE
Pressure: 29.97"   Gusts: 17mph
Location:  27.8164°N, 82.7802°W
Report Text: KPIE 231053Z 05012G15KT 10SM CLR 19/14 A2997 RMK AO2 SLP149 T01890139
Loading
Personal Weather Stations






























Interactive Weather Map
Tropical Storm Tracking
New forecast layout! Learn more

10-Day Weather Forecast

Advertisements
Track Severe Weather on mobile